createdAt,value
2018-09-10T00:00:04.146Z,1023.13
2018-09-10T00:01:31.143Z,1023.14
2018-09-10T00:02:58.549Z,1023.13
2018-09-10T00:04:25.054Z,1023.13
2018-09-10T00:05:51.719Z,1023.13
2018-09-10T00:07:19.139Z,1023.11
2018-09-10T00:08:46.635Z,1023.09
2018-09-10T00:10:14.075Z,1023.09
2018-09-10T00:11:40.684Z,1023.05
2018-09-10T00:13:08.048Z,1023.04
2018-09-10T00:14:35.293Z,1023.03
2018-09-10T00:16:02.692Z,1023.07
2018-09-10T00:17:30.063Z,1023.08
2018-09-10T00:18:57.670Z,1023.05
2018-09-10T00:20:24.114Z,1023.03
2018-09-10T00:21:51.374Z,1023.01
2018-09-10T00:23:18.891Z,1023.00
2018-09-10T00:24:46.269Z,1022.98
2018-09-10T00:26:13.645Z,1022.93
2018-09-10T00:27:40.673Z,1022.88
2018-09-10T00:29:08.091Z,1022.89
2018-09-10T00:30:35.723Z,1022.87
2018-09-10T00:32:03.077Z,1022.90
2018-09-10T00:33:29.935Z,1022.90
2018-09-10T00:34:57.473Z,1022.94
2018-09-10T00:36:24.169Z,1022.93
2018-09-10T00:37:51.058Z,1022.91
2018-09-10T00:39:18.495Z,1022.94
2018-09-10T00:40:45.755Z,1022.92
2018-09-10T00:42:12.684Z,1022.92
2018-09-10T00:43:39.645Z,1022.94
2018-09-10T00:45:06.100Z,1022.96
2018-09-10T00:46:33.122Z,1022.96
2018-09-10T00:48:00.124Z,1022.96
2018-09-10T00:49:26.872Z,1022.93
2018-09-10T00:50:54.332Z,1022.95
2018-09-10T00:52:21.886Z,1022.94
2018-09-10T00:53:49.128Z,1022.97
2018-09-10T00:55:15.929Z,1022.97
2018-09-10T00:56:43.387Z,1022.93
2018-09-10T00:58:10.311Z,1022.94
2018-09-10T00:59:37.162Z,1022.91
2018-09-10T01:01:04.358Z,1022.94
2018-09-10T01:02:31.762Z,1022.96
2018-09-10T01:03:58.144Z,1022.94
2018-09-10T01:05:25.426Z,1022.89
2018-09-10T01:06:53.139Z,1022.87
2018-09-10T01:08:20.071Z,1022.85
2018-09-10T01:09:47.748Z,1022.84
2018-09-10T01:11:15.087Z,1022.84
2018-09-10T01:12:42.573Z,1022.80
2018-09-10T01:14:09.696Z,1022.75
2018-09-10T01:15:37.217Z,1022.74
2018-09-10T01:17:03.907Z,1022.77
2018-09-10T01:18:31.367Z,1022.75
2018-09-10T01:26:15.841Z,1022.80
2018-09-10T01:27:42.418Z,1022.79
2018-09-10T01:29:08.962Z,1022.82
2018-09-10T01:30:34.847Z,1022.82
2018-09-10T01:32:02.134Z,1022.82
2018-09-10T01:34:36.644Z,1022.85
2018-09-10T01:36:03.130Z,1022.85
2018-09-10T01:37:29.537Z,1022.84
2018-09-10T01:38:56.902Z,1022.85
2018-09-10T01:40:24.125Z,1022.83
2018-09-10T01:41:51.506Z,1022.82
2018-09-10T01:43:19.029Z,1022.79
2018-09-10T01:44:45.682Z,1022.79
2018-09-10T01:46:13.141Z,1022.79
2018-09-10T01:47:40.597Z,1022.79
2018-09-10T01:49:07.383Z,1022.76
2018-09-10T01:50:34.617Z,1022.75
2018-09-10T01:52:01.620Z,1022.77
2018-09-10T01:53:29.122Z,1022.77
2018-09-10T01:54:56.128Z,1022.76
2018-09-10T01:56:23.382Z,1022.73
2018-09-10T01:57:50.726Z,1022.72
2018-09-10T01:59:18.144Z,1022.72
2018-09-10T02:00:45.785Z,1022.71
2018-09-10T02:02:13.060Z,1022.71
2018-09-10T02:03:40.558Z,1022.72
2018-09-10T02:05:07.282Z,1022.69
2018-09-10T02:09:29.116Z,1022.67
2018-09-10T02:10:55.748Z,1022.66
2018-09-10T02:12:22.882Z,1022.63
2018-09-10T02:13:50.497Z,1022.64
2018-09-10T02:15:17.740Z,1022.63
2018-09-10T02:16:44.568Z,1022.66
2018-09-10T02:18:11.974Z,1022.65
2018-09-10T02:19:39.433Z,1022.63
2018-09-10T02:21:06.639Z,1022.62
2018-09-10T02:22:34.056Z,1022.61
2018-09-10T02:24:01.468Z,1022.62
2018-09-10T02:25:28.645Z,1022.63
2018-09-10T02:26:56.066Z,1022.65
2018-09-10T02:28:23.374Z,1022.64
2018-09-10T02:29:50.838Z,1022.68
2018-09-10T02:31:17.880Z,1022.70
2018-09-10T02:32:45.071Z,1022.71
2018-09-10T02:34:12.448Z,1022.67
2018-09-10T02:35:39.870Z,1022.64
2018-09-10T02:37:06.800Z,1022.61
2018-09-10T02:38:34.228Z,1022.61
2018-09-10T02:40:01.629Z,1022.59
2018-09-10T02:41:28.465Z,1022.58
2018-09-10T02:42:55.783Z,1022.56
2018-09-10T02:44:23.010Z,1022.51
2018-09-10T02:45:50.459Z,1022.50
2018-09-10T02:47:17.638Z,1022.49
2018-09-10T02:48:45.009Z,1022.48
2018-09-10T02:50:12.389Z,1022.47
2018-09-10T02:51:39.846Z,1022.42
2018-09-10T02:53:07.335Z,1022.38
2018-09-10T02:54:34.792Z,1022.37
2018-09-10T02:56:02.266Z,1022.38
2018-09-10T02:57:28.609Z,1022.36
2018-09-10T02:58:55.861Z,1022.37
2018-09-10T03:00:23.165Z,1022.42
2018-09-10T03:01:50.568Z,1022.42
2018-09-10T03:03:17.291Z,1022.41
2018-09-10T03:04:44.651Z,1022.40
2018-09-10T03:06:12.333Z,1022.38
2018-09-10T03:07:39.367Z,1022.36
2018-09-10T03:09:06.761Z,1022.36
2018-09-10T03:10:33.715Z,1022.36
2018-09-10T03:12:01.244Z,1022.34
2018-09-10T03:13:27.586Z,1022.33
2018-09-10T03:14:54.998Z,1022.32
2018-09-10T03:16:22.529Z,1022.29
2018-09-10T03:17:49.371Z,1022.27
2018-09-10T03:19:16.924Z,1022.28
2018-09-10T03:20:44.215Z,1022.25
2018-09-10T03:22:11.510Z,1022.24
2018-09-10T03:23:38.912Z,1022.25
2018-09-10T03:25:05.719Z,1022.25
2018-09-10T03:26:32.604Z,1022.28
2018-09-10T03:27:59.952Z,1022.29
2018-09-10T03:29:27.453Z,1022.31
2018-09-10T03:30:54.316Z,1022.32
2018-09-10T03:32:21.134Z,1022.32
2018-09-10T03:33:48.608Z,1022.32
2018-09-10T03:35:16.193Z,1022.30
2018-09-10T03:36:43.459Z,1022.29
2018-09-10T03:38:10.985Z,1022.27
2018-09-10T03:39:37.678Z,1022.25
2018-09-10T03:41:05.237Z,1022.23
2018-09-10T03:42:32.299Z,1022.20
2018-09-10T03:43:59.685Z,1022.20
2018-09-10T03:45:26.401Z,1022.23
2018-09-10T03:46:53.880Z,1022.23
2018-09-10T03:48:21.325Z,1022.22
2018-09-10T03:49:48.712Z,1022.19
2018-09-10T03:51:16.167Z,1022.18
2018-09-10T03:52:43.724Z,1022.13
2018-09-10T03:54:10.584Z,1022.10
2018-09-10T03:55:37.333Z,1022.03
2018-09-10T03:57:04.650Z,1022.00
2018-09-10T03:58:32.076Z,1022.00
2018-09-10T03:59:59.425Z,1021.99
2018-09-10T04:01:26.614Z,1021.97
2018-09-10T04:02:53.914Z,1021.96
2018-09-10T04:04:21.354Z,1021.95
2018-09-10T04:05:48.155Z,1021.98
2018-09-10T04:07:15.168Z,1022.01
2018-09-10T04:08:41.836Z,1022.04
2018-09-10T04:10:09.160Z,1022.02
2018-09-10T04:11:36.771Z,1022.02
2018-09-10T04:13:04.185Z,1021.98
2018-09-10T04:14:31.516Z,1021.96
2018-09-10T04:15:58.852Z,1021.95
2018-09-10T04:17:26.463Z,1021.97
2018-09-10T04:18:53.204Z,1021.99
2018-09-10T04:20:20.257Z,1021.98
2018-09-10T04:21:46.843Z,1021.96
2018-09-10T04:23:14.313Z,1021.97
2018-09-10T04:24:41.662Z,1021.97
2018-09-10T04:26:09.150Z,1021.99
2018-09-10T04:27:36.157Z,1022.02
2018-09-10T04:29:03.543Z,1022.02
2018-09-10T04:30:31.005Z,1022.00
2018-09-10T04:31:58.276Z,1022.00
2018-09-10T04:33:25.599Z,1022.02
2018-09-10T04:34:52.865Z,1022.04
2018-09-10T04:36:19.650Z,1022.05
2018-09-10T04:37:47.125Z,1022.06
2018-09-10T04:39:14.466Z,1022.04
2018-09-10T04:40:41.935Z,1022.02
2018-09-10T04:42:09.193Z,1022.02
2018-09-10T04:43:36.646Z,1022.04
2018-09-10T04:45:03.977Z,1022.04
2018-09-10T04:46:31.315Z,1022.07
2018-09-10T04:47:58.465Z,1022.08
2018-09-10T04:49:25.897Z,1022.10
2018-09-10T04:50:53.755Z,1022.08
2018-09-10T04:52:21.064Z,1022.09
2018-09-10T04:53:48.373Z,1022.05
2018-09-10T04:55:15.749Z,1022.03
2018-09-10T04:56:42.306Z,1022.06
2018-09-10T04:58:09.758Z,1022.07
2018-09-10T04:59:36.792Z,1022.08
2018-09-10T05:01:04.126Z,1022.07
2018-09-10T05:02:31.232Z,1022.06
2018-09-10T05:03:57.697Z,1022.03
2018-09-10T05:05:24.849Z,1022.01
2018-09-10T05:06:52.297Z,1021.99
2018-09-10T05:08:19.808Z,1021.99
2018-09-10T05:09:47.086Z,1021.98
2018-09-10T05:11:14.343Z,1021.98
2018-09-10T05:12:41.746Z,1021.96
2018-09-10T05:14:08.676Z,1021.97
2018-09-10T05:15:35.696Z,1021.96
2018-09-10T05:17:02.628Z,1021.96
2018-09-10T05:18:29.508Z,1021.98
2018-09-10T05:19:57.053Z,1022.01
2018-09-10T05:21:24.727Z,1022.00
2018-09-10T05:22:50.271Z,1022.01
2018-09-10T05:24:17.807Z,1022.03
2018-09-10T05:25:45.215Z,1022.06
2018-09-10T05:27:12.648Z,1022.09
2018-09-10T05:28:40.086Z,1022.11
2018-09-10T05:30:07.383Z,1022.11
2018-09-10T05:31:34.513Z,1022.10
2018-09-10T05:33:01.937Z,1022.07
2018-09-10T05:34:29.131Z,1022.09
2018-09-10T05:35:55.812Z,1022.08
2018-09-10T05:37:23.244Z,1022.08
2018-09-10T05:38:50.748Z,1022.08
2018-09-10T05:40:18.334Z,1022.06
2018-09-10T05:41:45.281Z,1022.05
2018-09-10T05:43:11.857Z,1022.05
2018-09-10T05:44:39.452Z,1022.09
2018-09-10T05:46:06.870Z,1022.09
2018-09-10T05:47:34.042Z,1022.10
2018-09-10T05:49:01.154Z,1022.11
2018-09-10T05:50:28.235Z,1022.10
2018-09-10T05:51:55.746Z,1022.07
2018-09-10T05:53:23.352Z,1022.06
2018-09-10T05:54:50.535Z,1022.08
2018-09-10T05:56:18.096Z,1022.12
2018-09-10T05:57:44.968Z,1022.13
2018-09-10T05:59:12.442Z,1022.14
2018-09-10T06:00:39.505Z,1022.15
2018-09-10T06:02:06.638Z,1022.16
2018-09-10T06:03:34.196Z,1022.17
2018-09-10T06:05:01.485Z,1022.17
2018-09-10T06:06:28.319Z,1022.17
2018-09-10T06:07:54.982Z,1022.09
2018-09-10T06:09:22.539Z,1022.04
2018-09-10T06:10:49.675Z,1022.02
2018-09-10T06:12:17.322Z,1022.01
2018-09-10T06:13:44.638Z,1022.02
2018-09-10T06:15:12.065Z,1022.03
2018-09-10T06:16:39.830Z,1022.01
2018-09-10T06:18:07.329Z,1022.03
2018-09-10T06:19:34.425Z,1022.02
2018-09-10T06:21:01.776Z,1022.02
2018-09-10T06:22:29.099Z,1022.00
2018-09-10T06:23:56.626Z,1021.96
2018-09-10T06:25:24.123Z,1021.92
2018-09-10T06:26:50.661Z,1021.86
2018-09-10T06:28:18.150Z,1021.82
2018-09-10T06:29:44.751Z,1021.79
2018-09-10T06:31:11.279Z,1021.75
2018-09-10T06:32:37.990Z,1021.75
2018-09-10T06:34:05.484Z,1021.75
2018-09-10T06:35:32.922Z,1021.71
2018-09-10T06:37:00.537Z,1021.75
2018-09-10T06:38:27.933Z,1021.75
2018-09-10T06:39:55.239Z,1021.71
2018-09-10T06:41:22.690Z,1021.70
2018-09-10T06:42:50.293Z,1021.69
2018-09-10T06:44:17.921Z,1021.71
2018-09-10T06:45:44.631Z,1021.68
2018-09-10T06:47:12.238Z,1021.65
2018-09-10T06:48:39.401Z,1021.64
2018-09-10T06:50:06.266Z,1021.62
2018-09-10T06:51:33.627Z,1021.59
2018-09-10T06:53:01.171Z,1021.59
2018-09-10T06:54:27.772Z,1021.58
2018-09-10T06:55:55.201Z,1021.58
2018-09-10T06:57:21.547Z,1021.56
2018-09-10T06:58:49.102Z,1021.52
2018-09-10T07:00:15.760Z,1021.50
2018-09-10T07:01:43.071Z,1021.48
2018-09-10T07:03:09.856Z,1021.47
2018-09-10T07:04:36.910Z,1021.47
2018-09-10T07:06:04.127Z,1021.46
2018-09-10T07:07:31.030Z,1021.46
2018-09-10T07:08:58.278Z,1021.46
2018-09-10T07:10:25.705Z,1021.44
2018-09-10T07:11:53.392Z,1021.43
2018-09-10T07:13:20.072Z,1021.44
2018-09-10T07:14:47.065Z,1021.44
2018-09-10T07:16:14.574Z,1021.44
2018-09-10T07:17:41.300Z,1021.44
2018-09-10T07:19:08.533Z,1021.47
2018-09-10T07:20:35.353Z,1021.47
2018-09-10T07:22:02.488Z,1021.46
2018-09-10T07:23:29.848Z,1021.45
2018-09-10T07:24:56.376Z,1021.44
2018-09-10T07:26:23.853Z,1021.43
2018-09-10T07:27:51.372Z,1021.39
2018-09-10T07:29:18.816Z,1021.35
2018-09-10T07:30:45.507Z,1021.32
2018-09-10T07:32:12.902Z,1021.31
2018-09-10T07:33:40.369Z,1021.30
2018-09-10T07:35:07.925Z,1021.30
2018-09-10T07:36:34.080Z,1021.30
2018-09-10T07:38:01.674Z,1021.30
2018-09-10T07:39:28.915Z,1021.30
2018-09-10T07:40:56.472Z,1021.27
2018-09-10T07:42:24.060Z,1021.28
2018-09-10T07:43:51.564Z,1021.31
2018-09-10T07:45:18.912Z,1021.34
2018-09-10T07:46:46.465Z,1021.32
2018-09-10T07:48:14.042Z,1021.31
2018-09-10T07:49:40.613Z,1021.33
2018-09-10T07:51:08.050Z,1021.32
2018-09-10T07:52:35.363Z,1021.33
2018-09-10T07:54:02.943Z,1021.36
2018-09-10T07:55:29.107Z,1021.36
2018-09-10T07:56:56.772Z,1021.36
2018-09-10T07:58:24.246Z,1021.38
2018-09-10T07:59:51.198Z,1021.41
2018-09-10T08:01:17.772Z,1021.43
2018-09-10T08:02:45.381Z,1021.45
2018-09-10T08:04:12.820Z,1021.46
2018-09-10T08:05:40.257Z,1021.53
2018-09-10T08:07:07.673Z,1021.44
2018-09-10T08:08:35.156Z,1021.42
2018-09-10T08:10:02.627Z,1021.39
2018-09-10T08:11:29.998Z,1021.37
2018-09-10T08:12:57.543Z,1021.38
2018-09-10T08:14:25.033Z,1021.40
2018-09-10T08:15:52.361Z,1021.40
2018-09-10T08:17:19.718Z,1021.36
2018-09-10T08:18:47.312Z,1021.32
2018-09-10T08:20:14.247Z,1021.31
2018-09-10T08:21:41.803Z,1021.29
2018-09-10T08:23:09.287Z,1021.30
2018-09-10T08:24:37.687Z,1021.31
2018-09-10T08:26:04.035Z,1021.31
2018-09-10T08:27:30.862Z,1021.29
2018-09-10T08:28:57.497Z,1021.30
2018-09-10T08:30:25.091Z,1021.29
2018-09-10T08:31:52.369Z,1021.25
2018-09-10T08:33:19.925Z,1021.24
2018-09-10T08:34:47.548Z,1021.21
2018-09-10T08:36:14.998Z,1021.18
2018-09-10T08:37:42.473Z,1021.17
2018-09-10T08:39:09.904Z,1021.16
2018-09-10T08:40:37.095Z,1021.17
2018-09-10T08:42:04.578Z,1021.19
2018-09-10T08:43:31.721Z,1021.25
2018-09-10T08:44:59.238Z,1021.25
2018-09-10T08:46:26.152Z,1021.25
2018-09-10T08:47:53.717Z,1021.23
2018-09-10T08:49:21.214Z,1021.19
2018-09-10T08:50:48.351Z,1021.15
2018-09-10T08:52:15.050Z,1021.16
2018-09-10T08:53:42.456Z,1021.16
2018-09-10T08:55:10.020Z,1021.16
2018-09-10T08:56:37.120Z,1021.16
2018-09-10T08:58:04.425Z,1021.19
2018-09-10T08:59:31.696Z,1021.22
2018-09-10T09:00:59.138Z,1021.24
2018-09-10T09:02:26.604Z,1021.27
2018-09-10T09:03:54.285Z,1021.27
2018-09-10T09:05:21.682Z,1021.27
2018-09-10T09:06:49.144Z,1021.24
2018-09-10T09:08:15.998Z,1021.24
2018-09-10T09:09:43.395Z,1021.20
2018-09-10T09:11:10.971Z,1021.16
2018-09-10T09:12:38.549Z,1021.09
2018-09-10T09:14:06.045Z,1021.04
2018-09-10T09:15:33.591Z,1021.08
2018-09-10T09:17:00.526Z,1021.16
2018-09-10T09:18:27.648Z,1021.13
2018-09-10T09:19:55.372Z,1021.10
2018-09-10T09:21:23.011Z,1021.10
2018-09-10T09:22:50.525Z,1021.05
2018-09-10T09:24:18.017Z,1021.08
2018-09-10T09:25:45.643Z,1021.10
2018-09-10T09:27:13.142Z,1021.12
2018-09-10T09:28:39.940Z,1021.13
2018-09-10T09:30:07.099Z,1021.13
2018-09-10T09:31:34.569Z,1021.11
2018-09-10T09:33:02.253Z,1021.07
2018-09-10T09:34:29.660Z,1021.06
2018-09-10T09:35:57.107Z,1021.01
2018-09-10T09:37:24.695Z,1020.91
2018-09-10T09:38:52.159Z,1020.91
2018-09-10T09:40:18.948Z,1020.93
2018-09-10T09:41:46.367Z,1020.96
2018-09-10T09:43:13.200Z,1020.98
2018-09-10T09:44:40.124Z,1020.99
2018-09-10T09:46:07.116Z,1021.00
2018-09-10T09:47:34.502Z,1020.96
2018-09-10T09:49:01.742Z,1021.01
2018-09-10T09:50:29.417Z,1020.99
2018-09-10T09:51:56.806Z,1020.99
2018-09-10T09:53:23.816Z,1020.97
2018-09-10T09:54:51.407Z,1020.97
2018-09-10T09:56:18.402Z,1020.97
2018-09-10T09:57:45.768Z,1021.00
2018-09-10T09:59:13.178Z,1020.99
2018-09-10T10:00:40.010Z,1021.03
2018-09-10T10:02:07.216Z,1020.99
2018-09-10T10:03:34.706Z,1021.00
2018-09-10T10:05:01.563Z,1021.01
2018-09-10T10:06:28.917Z,1021.01
2018-09-10T10:07:56.621Z,1021.01
2018-09-10T10:09:24.099Z,1021.00
2018-09-10T10:10:51.798Z,1021.02
2018-09-10T10:12:19.331Z,1021.03
2018-09-10T10:13:45.964Z,1021.06
2018-09-10T10:15:13.465Z,1021.05
2018-09-10T10:16:40.917Z,1021.07
2018-09-10T10:18:07.516Z,1021.06
2018-09-10T10:19:35.238Z,1021.06
2018-09-10T10:21:02.932Z,1021.08
2018-09-10T10:22:29.875Z,1021.09
2018-09-10T10:23:57.342Z,1021.13
2018-09-10T10:25:24.275Z,1021.14
2018-09-10T10:26:51.768Z,1021.16
2018-09-10T10:28:19.640Z,1021.19
2018-09-10T10:29:46.683Z,1021.21
2018-09-10T10:31:14.233Z,1021.23
2018-09-10T10:32:41.721Z,1021.27
2018-09-10T10:34:09.227Z,1021.27
2018-09-10T10:35:36.885Z,1021.25
2018-09-10T10:37:04.370Z,1021.23
2018-09-10T10:38:31.877Z,1021.20
2018-09-10T10:39:59.349Z,1021.21
2018-09-10T10:41:26.884Z,1021.20
2018-09-10T10:42:54.252Z,1021.24
2018-09-10T10:44:21.820Z,1021.25
2018-09-10T10:45:49.425Z,1021.25
2018-09-10T10:47:17.067Z,1021.23
2018-09-10T10:48:43.749Z,1021.21
2018-09-10T10:50:11.093Z,1021.23
2018-09-10T10:51:37.568Z,1021.24
2018-09-10T10:53:04.999Z,1021.26
2018-09-10T10:54:32.252Z,1021.25
2018-09-10T10:55:59.525Z,1021.25
2018-09-10T10:57:27.033Z,1021.26
2018-09-10T10:58:54.420Z,1021.24
2018-09-10T11:00:21.960Z,1021.22
2018-09-10T11:01:49.438Z,1021.21
2018-09-10T11:03:16.924Z,1021.22
2018-09-10T11:04:44.401Z,1021.23
2018-09-10T11:06:12.015Z,1021.24
2018-09-10T11:07:38.592Z,1021.26
2018-09-10T11:09:06.107Z,1021.25
2018-09-10T11:10:33.074Z,1021.25
2018-09-10T11:11:59.966Z,1021.25
2018-09-10T11:13:27.486Z,1021.24
2018-09-10T11:14:55.089Z,1021.21
2018-09-10T11:16:22.274Z,1021.23
2018-09-10T11:17:49.752Z,1021.22
2018-09-10T11:19:17.201Z,1021.20
2018-09-10T11:20:44.520Z,1021.15
2018-09-10T11:22:12.222Z,1021.12
2018-09-10T11:23:40.665Z,1021.15
2018-09-10T11:25:06.355Z,1021.17
2018-09-10T11:26:33.569Z,1021.19
2018-09-10T11:28:00.286Z,1021.21
2018-09-10T11:29:27.670Z,1021.16
2018-09-10T11:30:55.136Z,1021.11
2018-09-10T11:32:22.690Z,1021.10
2018-09-10T11:33:49.702Z,1021.07
2018-09-10T11:35:17.190Z,1021.04
2018-09-10T11:36:44.662Z,1021.02
2018-09-10T11:38:11.379Z,1020.99
2018-09-10T11:39:38.946Z,1020.99
2018-09-10T11:41:06.432Z,1021.01
2018-09-10T11:42:33.876Z,1021.06
2018-09-10T11:44:00.956Z,1021.02
2018-09-10T11:45:27.855Z,1021.00
2018-09-10T11:46:55.468Z,1020.98
2018-09-10T11:48:22.427Z,1020.95
2018-09-10T11:49:49.132Z,1020.97
2018-09-10T11:51:16.555Z,1020.94
2018-09-10T11:52:44.255Z,1020.94
2018-09-10T11:54:11.553Z,1020.92
2018-09-10T11:55:38.762Z,1020.93
2018-09-10T11:57:06.155Z,1020.93
2018-09-10T11:58:33.259Z,1020.96
2018-09-10T12:00:00.744Z,1020.96
2018-09-10T12:01:28.327Z,1020.98
2018-09-10T12:02:55.703Z,1021.03
2018-09-10T12:04:22.479Z,1021.02
2018-09-10T12:05:50.054Z,1021.06
2018-09-10T12:07:17.846Z,1021.09
2018-09-10T12:08:45.420Z,1021.12
2018-09-10T12:10:13.026Z,1021.19
2018-09-10T12:11:40.623Z,1021.20
2018-09-10T12:13:08.219Z,1021.21
2018-09-10T12:14:35.590Z,1021.19
2018-09-10T12:16:02.769Z,1021.15
2018-09-10T12:17:29.841Z,1021.14
2018-09-10T12:18:56.694Z,1021.19
2018-09-10T12:20:24.101Z,1021.19
2018-09-10T12:21:50.967Z,1021.21
2018-09-10T12:23:18.592Z,1021.20
2018-09-10T12:24:46.126Z,1021.23
2018-09-10T12:26:13.084Z,1021.19
2018-09-10T12:27:40.891Z,1021.15
2018-09-10T12:29:08.161Z,1021.10
2018-09-10T12:30:35.670Z,1021.11
2018-09-10T12:32:03.182Z,1021.11
2018-09-10T12:33:33.202Z,1021.15
2018-09-10T12:34:57.030Z,1021.17
2018-09-10T12:36:23.900Z,1021.16
2018-09-10T12:37:51.511Z,1021.13
2018-09-10T12:39:18.446Z,1021.14
2018-09-10T12:40:45.882Z,1021.12
2018-09-10T12:42:13.481Z,1021.14
2018-09-10T12:43:40.337Z,1021.13
2018-09-10T12:45:07.783Z,1021.14
2018-09-10T12:46:35.194Z,1021.13
2018-09-10T12:48:02.756Z,1021.06
2018-09-10T12:49:30.343Z,1021.07
2018-09-10T12:50:57.311Z,1021.06
2018-09-10T12:52:24.766Z,1021.03
2018-09-10T12:53:52.276Z,1021.01
2018-09-10T12:55:19.856Z,1021.03
2018-09-10T12:56:47.583Z,1021.01
2018-09-10T12:58:14.135Z,1021.04
2018-09-10T12:59:41.741Z,1021.03
2018-09-10T13:01:09.378Z,1021.03
2018-09-10T13:02:36.813Z,1021.07
2018-09-10T13:04:04.408Z,1021.17
2018-09-10T13:05:32.004Z,1021.22
2018-09-10T13:06:59.360Z,1021.27
2018-09-10T13:08:26.048Z,1021.33
2018-09-10T13:09:53.695Z,1021.33
2018-09-10T13:11:21.392Z,1021.38
2018-09-10T13:12:48.968Z,1021.42
2018-09-10T13:14:16.662Z,1021.43
2018-09-10T13:15:44.327Z,1021.45
2018-09-10T13:17:11.877Z,1021.41
2018-09-10T13:18:38.558Z,1021.42
2018-09-10T13:20:05.897Z,1021.46
2018-09-10T13:21:33.531Z,1021.47
2018-09-10T13:23:00.881Z,1021.49
2018-09-10T13:24:28.316Z,1021.49
2018-09-10T13:25:55.999Z,1021.46
2018-09-10T13:27:22.825Z,1021.45
2018-09-10T13:28:50.489Z,1021.46
2018-09-10T13:30:17.573Z,1021.44
2018-09-10T13:31:44.933Z,1021.42
2018-09-10T13:33:11.641Z,1021.44
2018-09-10T13:34:39.256Z,1021.49
2018-09-10T13:36:06.746Z,1021.50
2018-09-10T13:37:33.758Z,1021.50
2018-09-10T13:39:01.220Z,1021.45
2018-09-10T13:40:28.797Z,1021.46
2018-09-10T13:41:56.498Z,1021.42
2018-09-10T13:43:23.021Z,1021.37
2018-09-10T13:44:49.986Z,1021.32
2018-09-10T13:46:17.405Z,1021.23
2018-09-10T13:47:45.049Z,1021.15
2018-09-10T13:49:12.679Z,1021.09
2018-09-10T13:50:40.261Z,1021.05
2018-09-10T13:52:07.691Z,1021.00
2018-09-10T13:53:35.240Z,1020.99
2018-09-10T13:55:02.900Z,1020.94
2018-09-10T13:56:30.495Z,1020.94
2018-09-10T13:57:57.730Z,1020.95
2018-09-10T13:59:25.450Z,1020.96
2018-09-10T14:00:52.949Z,1020.93
2018-09-10T14:02:20.494Z,1020.93
2018-09-10T14:03:48.272Z,1020.92
2018-09-10T14:05:14.868Z,1020.98
2018-09-10T14:06:42.529Z,1021.02
2018-09-10T14:08:09.028Z,1021.04
2018-09-10T14:09:36.572Z,1021.01
2018-09-10T14:11:04.168Z,1020.97
2018-09-10T14:12:31.580Z,1020.93
2018-09-10T14:13:59.177Z,1020.93
2018-09-10T14:15:26.726Z,1020.94
2018-09-10T14:16:54.248Z,1020.91
2018-09-10T14:18:21.791Z,1020.86
2018-09-10T14:19:49.235Z,1020.83
2018-09-10T14:21:17.044Z,1020.88
2018-09-10T14:22:44.566Z,1020.92
2018-09-10T14:24:12.136Z,1020.95
2018-09-10T14:25:40.040Z,1020.93
2018-09-10T14:27:07.259Z,1020.96
2018-09-10T14:28:34.634Z,1021.00
2018-09-10T14:30:02.217Z,1020.99
2018-09-10T14:31:29.561Z,1021.02
2018-09-10T14:32:57.318Z,1021.02
2018-09-10T14:34:23.527Z,1021.06
2018-09-10T14:35:50.741Z,1021.11
2018-09-10T14:37:18.191Z,1021.15
2018-09-10T14:38:45.221Z,1021.20
2018-09-10T14:40:12.733Z,1021.26
2018-09-10T14:41:40.235Z,1021.27
2018-09-10T14:43:07.725Z,1021.27
2018-09-10T14:44:34.786Z,1021.31
2018-09-10T14:46:02.227Z,1021.37
2018-09-10T14:47:29.445Z,1021.31
2018-09-10T14:48:56.945Z,1021.31
2018-09-10T14:50:24.719Z,1021.35
2018-09-10T14:51:51.247Z,1021.36
2018-09-10T14:53:19.042Z,1021.41
2018-09-10T14:54:47.449Z,1021.40
2018-09-10T14:56:13.365Z,1021.40
2018-09-10T14:57:40.772Z,1021.41
2018-09-10T14:59:08.236Z,1021.40
2018-09-10T15:00:35.621Z,1021.40
2018-09-10T15:02:02.726Z,1021.37
2018-09-10T15:03:30.153Z,1021.32
2018-09-10T15:04:57.790Z,1021.26
2018-09-10T15:06:25.265Z,1021.20
2018-09-10T15:07:52.823Z,1021.21
2018-09-10T15:09:20.339Z,1021.25
2018-09-10T15:10:47.616Z,1021.27
2018-09-10T15:12:15.303Z,1021.27
2018-09-10T15:13:42.826Z,1021.28
2018-09-10T15:15:09.558Z,1021.29
2018-09-10T15:16:36.692Z,1021.32
2018-09-10T15:18:03.697Z,1021.33
2018-09-10T15:19:31.268Z,1021.32
2018-09-10T15:20:58.921Z,1021.33
2018-09-10T15:22:26.441Z,1021.33
2018-09-10T15:23:54.220Z,1021.32
2018-09-10T15:25:21.849Z,1021.33
2018-09-10T15:26:49.195Z,1021.31
2018-09-10T15:28:16.263Z,1021.30
2018-09-10T15:29:43.785Z,1021.31
2018-09-10T15:31:11.269Z,1021.32
2018-09-10T15:32:38.828Z,1021.33
2018-09-10T15:34:06.278Z,1021.36
2018-09-10T15:35:33.172Z,1021.37
2018-09-10T15:37:00.503Z,1021.36
2018-09-10T15:38:27.759Z,1021.35
2018-09-10T15:39:55.137Z,1021.33
2018-09-10T15:41:22.810Z,1021.34
2018-09-10T15:42:50.377Z,1021.40
2018-09-10T15:44:16.878Z,1021.42
2018-09-10T15:45:44.269Z,1021.47
2018-09-10T15:47:12.006Z,1021.49
2018-09-10T15:48:38.781Z,1021.50
2018-09-10T15:50:06.156Z,1021.51
2018-09-10T15:51:33.588Z,1021.49
2018-09-10T15:53:00.986Z,1021.48
2018-09-10T15:54:28.655Z,1021.48
2018-09-10T15:55:56.383Z,1021.51
2018-09-10T15:57:23.360Z,1021.54
2018-09-10T15:58:50.089Z,1021.59
2018-09-10T16:00:17.266Z,1021.58
2018-09-10T16:01:44.895Z,1021.60
2018-09-10T16:03:11.778Z,1021.64
2018-09-10T16:04:39.221Z,1021.68
2018-09-10T16:06:07.063Z,1021.69
2018-09-10T16:07:34.568Z,1021.68
2018-09-10T16:09:01.893Z,1021.64
2018-09-10T16:10:28.505Z,1021.60
2018-09-10T16:11:55.942Z,1021.55
2018-09-10T16:13:23.540Z,1021.52
2018-09-10T16:14:51.014Z,1021.53
2018-09-10T16:16:18.498Z,1021.52
2018-09-10T16:17:45.970Z,1021.51
2018-09-10T16:19:21.402Z,1021.50
2018-09-10T16:20:40.776Z,1021.52
2018-09-10T16:22:08.223Z,1021.53
2018-09-10T16:23:35.905Z,1021.53
2018-09-10T16:25:02.867Z,1021.51
2018-09-10T16:26:30.186Z,1021.48
2018-09-10T16:27:57.879Z,1021.47
2018-09-10T16:29:25.466Z,1021.49
2018-09-10T16:30:52.932Z,1021.46
2018-09-10T16:32:20.325Z,1021.44
2018-09-10T16:33:47.966Z,1021.47
2018-09-10T16:35:15.389Z,1021.51
2018-09-10T16:36:43.090Z,1021.53
2018-09-10T16:38:09.582Z,1021.56
2018-09-10T16:39:37.270Z,1021.58
2018-09-10T16:41:04.637Z,1021.61
2018-09-10T16:42:31.578Z,1021.64
2018-09-10T16:43:58.959Z,1021.64
2018-09-10T16:45:26.600Z,1021.64
2018-09-10T16:46:54.428Z,1021.66
2018-09-10T16:48:22.085Z,1021.67
2018-09-10T16:49:48.472Z,1021.66
2018-09-10T16:51:23.936Z,1021.66
2018-09-10T16:52:43.387Z,1021.65
2018-09-10T16:54:10.984Z,1021.67
2018-09-10T16:55:38.437Z,1021.71
2018-09-10T16:57:05.877Z,1021.73
2018-09-10T16:58:33.485Z,1021.77
2018-09-10T17:00:00.889Z,1021.79
2018-09-10T17:01:28.341Z,1021.78
2018-09-10T17:02:55.855Z,1021.79
2018-09-10T17:04:23.523Z,1021.75
2018-09-10T17:05:50.907Z,1021.77
2018-09-10T17:07:18.389Z,1021.77
2018-09-10T17:08:45.846Z,1021.78
2018-09-10T17:10:13.470Z,1021.81
2018-09-10T17:11:40.801Z,1021.83
2018-09-10T17:13:08.273Z,1021.78
2018-09-10T17:14:35.646Z,1021.76
2018-09-10T17:16:03.112Z,1021.76
2018-09-10T17:17:30.631Z,1021.83
2018-09-10T17:18:58.258Z,1021.96
2018-09-10T17:20:25.661Z,1022.04
2018-09-10T17:21:53.254Z,1022.09
2018-09-10T17:23:20.872Z,1022.05
2018-09-10T17:24:48.282Z,1022.05
2018-09-10T17:26:15.635Z,1022.07
2018-09-10T17:27:43.228Z,1022.10
2018-09-10T17:29:10.737Z,1022.11
2018-09-10T17:30:38.412Z,1022.13
2018-09-10T17:32:05.781Z,1022.18
2018-09-10T17:33:33.065Z,1022.24
2018-09-10T17:34:59.550Z,1022.26
2018-09-10T17:36:25.910Z,1022.28
2018-09-10T17:37:53.361Z,1022.27
2018-09-10T17:39:20.505Z,1022.25
2018-09-10T17:40:45.707Z,1022.24
2018-09-10T17:42:20.245Z,1022.25
2018-09-10T17:43:40.557Z,1022.25
2018-09-10T17:45:15.357Z,1022.29